Time;durP1;ratioP1;P1;durP2;ratioP2;P2;SDS_P1;SDS_P2;PMS_P1;PMS_P2;Temp;Humidity;BMP_temperature;BMP_pressure;BME280_temperature;BME280_humidity;BME280_pressure;Samples;Min_cycle;Max_cycle;Signal;HPM_P1;HPM_P2
2021/04/14 04:46:59;;;;;;;3.42;2.00;;;;;;;;;;6231049;22;884348;-81
2021/04/14 04:49:25;;;;;;;3.55;1.98;;;;;;;;;;6313543;22;20015;-80
2021/04/14 04:51:51;;;;;;;3.30;2.00;;;;;;;;;;6313335;22;20344;-80
2021/04/14 04:54:16;;;;;;;5.07;2.40;;;;;;;;;;6313080;22;20031;-80
2021/04/14 04:56:42;;;;;;;4.35;2.10;;;;;;;;;;6265874;22;20086;-81
2021/04/14 04:59:07;;;;;;;3.97;2.10;;;;;;;;;;6283137;22;20035;-79
2021/04/14 05:01:33;;;;;;;3.97;2.13;;;;;;;;;;6283021;22;20108;-80
2021/04/14 05:03:59;;;;;;;4.32;2.35;;;;;;;;;;6282287;22;20046;-79
2021/04/14 05:06:25;;;;;;;4.00;2.08;;;;;;;;;;6282082;22;20007;-80
2021/04/14 05:08:50;;;;;;;6.10;2.35;;;;;;;;;;6282504;22;20039;-81
2021/04/14 05:11:16;;;;;;;3.53;2.00;;;;;;;;;;6281625;22;20095;-79
2021/04/14 05:13:42;;;;;;;5.82;2.55;;;;;;;;;;6282514;22;20009;-82
2021/04/14 05:16:07;;;;;;;6.40;2.20;;;;;;;;;;6277876;22;20409;-80
2021/04/14 05:18:34;;;;;;;4.07;2.33;;;;;;;;;;6275573;22;20082;-79
2021/04/14 05:21:00;;;;;;;4.15;1.90;;;;;;;;;;6247912;22;20090;-79
2021/04/14 05:23:26;;;;;;;4.78;2.30;;;;;;;;;;6276173;22;20049;-81
2021/04/14 05:25:52;;;;;;;5.07;2.80;;;;;;;;;;6275394;22;20074;-83
2021/04/14 05:28:20;;;;;;;4.13;2.63;;;;;;;;;;6275794;22;20446;-81
2021/04/14 05:30:46;;;;;;;9.75;3.28;;;;;;;;;;6275229;22;20011;-82
2021/04/14 05:33:12;;;;;;;5.20;2.53;;;;;;;;;;6276219;22;20354;-81
2021/04/14 05:35:37;;;;;;;6.07;2.42;;;;;;;;;;6248440;22;19999;-80
2021/04/14 05:38:04;;;;;;;4.55;2.38;;;;;;;;;;6275840;22;20049;-80
2021/04/14 05:40:29;;;;;;;5.38;2.80;;;;;;;;;;6274620;22;19996;-79
2021/04/14 05:42:55;;;;;;;7.18;2.50;;;;;;;;;;6275073;22;20042;-80
2021/04/14 05:45:22;;;;;;;5.32;2.30;;;;;;;;;;6274748;22;20034;-82
2021/04/14 05:47:48;;;;;;;4.82;2.83;;;;;;;;;;6275601;22;19999;-80
2021/04/14 05:50:15;;;;;;;6.20;3.50;;;;;;;;;;6281368;22;20003;-80
2021/04/14 05:52:41;;;;;;;5.75;2.80;;;;;;;;;;6282411;22;20019;-80
2021/04/14 05:55:07;;;;;;;4.47;2.58;;;;;;;;;;6281324;22;20019;-80
2021/04/14 05:57:33;;;;;;;5.38;3.05;;;;;;;;;;6280909;22;20342;-80
2021/04/14 05:59:58;;;;;;;11.05;4.63;;;;;;;;;;6254042;22;20023;-80
2021/04/14 06:02:24;;;;;;;8.52;4.78;;;;;;;;;;6281748;22;20429;-79
2021/04/14 06:04:53;;;;;;;8.40;4.43;;;;;;;;;;6282863;22;20031;-80
2021/04/14 06:07:19;;;;;;;5.65;3.53;;;;;;;;;;6281172;22;20330;-79
2021/04/14 06:09:44;;;;;;;9.80;4.85;;;;;;;;;;6254100;22;20007;-80
2021/04/14 06:12:11;;;;;;;8.82;5.18;;;;;;;;;;6279790;22;20027;-79
2021/04/14 06:14:36;;;;;;;10.70;6.95;;;;;;;;;;6280076;22;20014;-80
2021/04/14 06:17:03;;;;;;;11.48;6.00;;;;;;;;;;6281343;22;20074;-80
2021/04/14 06:19:28;;;;;;;9.57;5.72;;;;;;;;;;6280628;22;20007;-80
2021/04/14 06:21:54;;;;;;;8.75;5.30;;;;;;;;;;6281029;22;20026;-80
2021/04/14 06:24:20;;;;;;;9.77;6.45;;;;;;;;;;6253565;22;20004;-80
2021/04/14 06:26:49;;;;;;;7.93;5.32;;;;;;;;;;6280369;22;20099;-80
2021/04/14 06:29:15;;;;;;;8.98;4.95;;;;;;;;;;6281121;22;20311;-80
2021/04/14 06:31:41;;;;;;;6.88;4.30;;;;;;;;;;6281711;22;20027;-80
2021/04/14 06:34:12;;;;;;;6.95;4.60;;;;;;;;;;6280968;22;20031;-79
2021/04/14 06:36:37;;;;;;;7.45;4.40;;;;;;;;;;6282883;22;20023;-80
2021/04/14 06:39:04;;;;;;;10.07;5.40;;;;;;;;;;6282944;22;20027;-80
2021/04/14 06:42:03;;;;;;;9.63;4.97;;;;;;;;;;6283547;22;20007;-80
2021/04/14 06:44:28;;;;;;;7.75;4.82;;;;;;;;;;6281749;22;20064;-80
2021/04/14 06:46:56;;;;;;;9.85;5.60;;;;;;;;;;6282663;22;20000;-80
2021/04/14 06:49:30;;;;;;;10.35;5.90;;;;;;;;;;6255739;22;20071;-80
2021/04/14 06:52:01;;;;;;;18.98;8.38;;;;;;;;;;6284576;22;19999;-80
2021/04/14 06:54:36;;;;;;;16.98;8.98;;;;;;;;;;6282806;22;20003;-80
2021/04/14 06:57:07;;;;;;;13.95;8.02;;;;;;;;;;6281530;22;20003;-80
2021/04/14 06:59:34;;;;;;;10.73;5.35;;;;;;;;;;6282031;22;19999;-80
2021/04/14 07:02:08;;;;;;;12.65;6.05;;;;;;;;;;6254912;22;20378;-81
2021/04/14 07:04:46;;;;;;;18.48;9.70;;;;;;;;;;6279012;22;20334;-80
2021/04/14 07:07:31;;;;;;;10.60;5.72;;;;;;;;;;6279913;22;20411;-81
2021/04/14 07:10:04;;;;;;;10.43;6.13;;;;;;;;;;6278838;22;20003;-81
2021/04/14 07:12:30;;;;;;;15.88;7.13;;;;;;;;;;6279604;22;20503;-80
2021/04/14 07:14:59;;;;;;;11.30;7.55;;;;;;;;;;6280770;22;20008;-81
2021/04/14 07:17:30;;;;;;;9.07;6.38;;;;;;;;;;6278634;22;20006;-81
2021/04/14 07:20:16;;;;;;;8.63;5.78;;;;;;;;;;6251942;22;20342;-80
2021/04/14 07:23:01;;;;;;;11.05;6.68;;;;;;;;;;6278417;22;20004;-80
2021/04/14 07:25:35;;;;;;;13.70;7.63;;;;;;;;;;6251850;22;20038;-80
2021/04/14 07:28:04;;;;;;;14.63;7.35;;;;;;;;;;6279341;22;20003;-80
2021/04/14 07:30:42;;;;;;;14.77;8.70;;;;;;;;;;6278135;22;20000;-81
2021/04/14 07:33:17;;;;;;;14.13;7.50;;;;;;;;;;6250006;22;20003;-81
2021/04/14 07:35:49;;;;;;;17.17;7.60;;;;;;;;;;6278040;22;20008;-81
2021/04/14 07:38:21;;;;;;;16.88;8.57;;;;;;;;;;6275948;22;20019;-81
2021/04/14 07:40:54;;;;;;;19.98;8.40;;;;;;;;;;6272392;22;20495;-81
2021/04/14 07:43:30;;;;;;;11.88;7.05;;;;;;;;;;6274992;22;20003;-81
2021/04/14 07:45:56;;;;;;;10.90;6.60;;;;;;;;;;6274290;22;20032;-81
2021/04/14 07:48:28;;;;;;;9.43;4.93;;;;;;;;;;6274182;22;19999;-82
2021/04/14 07:50:58;;;;;;;6.43;4.70;;;;;;;;;;6274436;22;20107;-81
2021/04/14 07:53:30;;;;;;;7.78;4.75;;;;;;;;;;6274624;22;20367;-82
2021/04/14 07:56:08;;;;;;;9.88;5.13;;;;;;;;;;6274308;22;20014;-81
2021/04/14 07:58:34;;;;;;;8.32;4.03;;;;;;;;;;6274170;22;20057;-81
2021/04/14 08:01:14;;;;;;;6.68;3.60;;;;;;;;;;6274231;22;20007;-81
2021/04/14 08:03:39;;;;;;;6.60;3.65;;;;;;;;;;6273963;22;20008;-81
2021/04/14 08:06:16;;;;;;;12.60;4.68;;;;;;;;;;6274065;22;20488;-81
2021/04/14 08:08:42;;;;;;;8.18;4.10;;;;;;;;;;6274261;22;20003;-81
2021/04/14 08:13:30;;;;;;;10.23;4.70;;;;;;;;;;5098579;27;20352;-80
2021/04/14 08:15:55;;;;;;;10.57;4.00;;;;;;;;;;5098649;28;20040;-80
2021/04/14 08:18:23;;;;;;;10.02;4.55;;;;;;;;;;5075528;28;20024;-80
2021/04/14 08:21:02;;;;;;;6.22;3.25;;;;;;;;;;5078830;28;20054;-80
2021/04/14 08:23:28;;;;;;;5.25;2.33;;;;;;;;;;5079274;28;20052;-80
2021/04/14 08:25:55;;;;;;;4.47;2.17;;;;;;;;;;5079126;28;20029;-80
2021/04/14 08:28:30;;;;;;;8.70;2.92;;;;;;;;;;5080785;28;20052;-80
2021/04/14 08:31:06;;;;;;;6.82;2.70;;;;;;;;;;5077580;28;20032;-80
2021/04/14 08:33:32;;;;;;;4.63;1.90;;;;;;;;;;5079519;28;20060;-80
2021/04/14 08:36:07;;;;;;;6.72;2.95;;;;;;;;;;5077469;28;20012;-80
2021/04/14 08:38:33;;;;;;;6.32;2.65;;;;;;;;;;5077826;28;20051;-80
2021/04/14 08:41:00;;;;;;;7.45;2.60;;;;;;;;;;5079079;28;20023;-80
2021/04/14 08:43:41;;;;;;;6.95;2.25;;;;;;;;;;5079166;28;20024;-80
2021/04/14 08:46:25;;;;;;;4.13;1.92;;;;;;;;;;5079568;28;20020;-81
2021/04/14 08:48:52;;;;;;;4.78;1.95;;;;;;;;;;5078565;28;20032;-80
2021/04/14 08:51:18;;;;;;;9.45;2.47;;;;;;;;;;5074573;28;20056;-80
2021/04/14 08:53:45;;;;;;;4.53;1.95;;;;;;;;;;5071999;28;20165;-81
2021/04/14 08:56:11;;;;;;;6.90;2.20;;;;;;;;;;5070223;28;20043;-81
2021/04/14 08:58:37;;;;;;;6.82;2.65;;;;;;;;;;5068572;28;20048;-80
2021/04/14 09:01:04;;;;;;;8.82;2.10;;;;;;;;;;5077239;28;20023;-80
2021/04/14 09:03:32;;;;;;;8.00;2.55;;;;;;;;;;5064573;28;20059;-81
2021/04/14 09:05:58;;;;;;;4.07;2.03;;;;;;;;;;5063968;28;20446;-81
2021/04/14 09:08:25;;;;;;;7.22;1.67;;;;;;;;;;5062101;28;20031;-81
2021/04/14 09:10:54;;;;;;;3.80;1.90;;;;;;;;;;5066689;28;20104;-80
2021/04/14 09:13:47;;;;;;;7.00;2.80;;;;;;;;;;5074675;28;20044;-82
2021/04/14 09:16:25;;;;;;;5.22;2.55;;;;;;;;;;5063898;28;20027;-82
2021/04/14 09:18:50;;;;;;;6.55;3.42;;;;;;;;;;5071033;28;20489;-82
2021/04/14 09:21:18;;;;;;;3.75;1.75;;;;;;;;;;5072013;28;20031;-82
2021/04/14 09:23:55;;;;;;;5.13;2.75;;;;;;;;;;5071932;28;20017;-81
2021/04/14 09:26:35;;;;;;;11.65;3.10;;;;;;;;;;5060202;28;20443;-82
2021/04/14 09:29:01;;;;;;;4.15;2.22;;;;;;;;;;5060226;28;20050;-82
2021/04/14 09:31:40;;;;;;;4.88;1.70;;;;;;;;;;5054971;28;20478;-82
2021/04/14 09:34:09;;;;;;;6.97;2.10;;;;;;;;;;5053400;28;20040;-81
2021/04/14 09:36:44;;;;;;;9.23;2.33;;;;;;;;;;5051221;28;20076;-81
2021/04/14 09:39:13;;;;;;;5.82;2.00;;;;;;;;;;5067457;28;20417;-81
2021/04/14 09:41:39;;;;;;;5.80;2.33;;;;;;;;;;5055825;28;20265;-82
2021/04/14 09:44:14;;;;;;;4.30;1.80;;;;;;;;;;5055749;28;20037;-82
2021/04/14 09:46:52;;;;;;;5.35;2.00;;;;;;;;;;5056135;28;20017;-82
2021/04/14 09:49:32;;;;;;;4.00;1.70;;;;;;;;;;5052925;28;20802;-82
2021/04/14 09:51:59;;;;;;;5.63;2.45;;;;;;;;;;5054962;28;20460;-82
2021/04/14 09:54:28;;;;;;;4.70;2.03;;;;;;;;;;5049138;28;20078;-82
2021/04/14 09:56:54;;;;;;;5.95;2.33;;;;;;;;;;5056948;28;20024;-82
2021/04/14 09:59:21;;;;;;;6.07;2.60;;;;;;;;;;5054390;28;20017;-82
2021/04/14 10:04:17;;;;;;;3.28;1.73;;;;;;;;;;5065365;28;20435;-82
2021/04/14 10:06:43;;;;;;;6.68;1.90;;;;;;;;;;5060564;28;20029;-82
2021/04/14 10:09:16;;;;;;;5.88;1.73;;;;;;;;;;5049497;28;20079;-82
2021/04/14 10:11:42;;;;;;;3.17;1.50;;;;;;;;;;5054777;28;20064;-82
2021/04/14 10:14:09;;;;;;;3.97;1.60;;;;;;;;;;5059411;28;20107;-82
2021/04/14 10:16:38;;;;;;;4.05;1.80;;;;;;;;;;5059297;28;20021;-81
2021/04/14 10:19:06;;;;;;;5.53;1.50;;;;;;;;;;5057381;28;20021;-82
2021/04/14 10:21:33;;;;;;;3.85;1.90;;;;;;;;;;5058397;28;20017;-82
2021/04/14 10:24:02;;;;;;;3.63;1.70;;;;;;;;;;5062797;28;20082;-80
2021/04/14 10:26:29;;;;;;;4.80;1.90;;;;;;;;;;5053041;28;20104;-82
2021/04/14 10:28:55;;;;;;;6.03;1.92;;;;;;;;;;5058203;28;20025;-82
2021/04/14 10:31:24;;;;;;;4.47;1.92;;;;;;;;;;5061320;28;20023;-82
2021/04/14 10:33:49;;;;;;;5.25;1.70;;;;;;;;;;5053954;28;20032;-82
2021/04/14 10:36:15;;;;;;;4.70;2.08;;;;;;;;;;5056067;28;20025;-82
2021/04/14 10:38:42;;;;;;;4.03;2.00;;;;;;;;;;5055409;28;20025;-82
2021/04/14 10:41:33;;;;;;;5.13;1.80;;;;;;;;;;5055216;28;20059;-82
2021/04/14 10:43:59;;;;;;;;;;;;;;;;;;5061956;28;20064;-82
2021/04/14 10:46:29;;;;;;;5.07;2.60;;;;;;;;;;5062122;28;19912;-82
2021/04/14 10:48:59;;;;;;;4.97;1.73;;;;;;;;;;5058887;28;20055;-82
2021/04/14 10:51:31;;;;;;;4.65;1.73;;;;;;;;;;5060160;28;20040;-82
2021/04/14 10:53:59;;;;;;;5.55;2.42;;;;;;;;;;5056767;28;20063;-82
2021/04/14 10:58:43;;;;;;;8.45;2.47;;;;;;;;;;5104526;27;20407;-80
2021/04/14 11:01:11;;;;;;;7.88;2.78;;;;;;;;;;5105897;28;20115;-79
2021/04/14 11:03:37;;;;;;;6.65;3.50;;;;;;;;;;5103856;28;20628;-79
2021/04/14 11:06:05;;;;;;;4.65;2.13;;;;;;;;;;5108037;28;20094;-80
2021/04/14 11:13:19;;;;;;;4.53;2.25;;;;;;;;;;5094348;27;20409;-78
2021/04/14 11:15:46;;;;;;;5.03;2.25;;;;;;;;;;5088857;28;20032;-78
2021/04/14 11:18:13;;;;;;;9.38;2.13;;;;;;;;;;5084679;28;20032;-77
2021/04/14 11:20:39;;;;;;;7.30;2.45;;;;;;;;;;5081851;28;20020;-78
2021/04/14 11:23:15;;;;;;;6.22;1.90;;;;;;;;;;5083802;28;20020;-78
2021/04/14 11:25:40;;;;;;;3.85;2.20;;;;;;;;;;5079439;28;20025;-77
2021/04/14 11:28:13;;;;;;;4.82;2.03;;;;;;;;;;5084829;28;20376;-77
2021/04/14 11:30:48;;;;;;;4.20;1.75;;;;;;;;;;5083965;28;20036;-78
2021/04/14 11:35:43;;;;;;;4.32;2.55;;;;;;;;;;5110358;27;20397;-78
2021/04/14 11:38:26;;;;;;;5.53;2.08;;;;;;;;;;5104060;28;20037;-77
2021/04/14 11:40:53;;;;;;;3.25;1.73;;;;;;;;;;5103219;28;20046;-77
2021/04/14 11:43:24;;;;;;;6.25;2.10;;;;;;;;;;5102205;28;20055;-77
2021/04/14 11:45:50;;;;;;;;;;;;;;;;;;5100423;28;20516;-77
2021/04/14 11:48:17;;;;;;;3.42;2.05;;;;;;;;;;5100641;28;19908;-78
2021/04/14 11:50:44;;;;;;;6.38;2.85;;;;;;;;;;5100415;28;20486;-77
2021/04/14 11:53:18;;;;;;;4.95;2.80;;;;;;;;;;5096661;27;20024;-77
2021/04/14 11:55:44;;;;;;;4.25;2.10;;;;;;;;;;5097427;28;20021;-78
2021/04/14 11:58:21;;;;;;;3.70;2.03;;;;;;;;;;5100844;28;20066;-77
2021/04/14 12:00:47;;;;;;;3.17;1.80;;;;;;;;;;5098195;28;20040;-78
2021/04/14 12:03:25;;;;;;;3.08;1.58;;;;;;;;;;5098460;28;20088;-78
2021/04/14 12:05:51;;;;;;;5.43;3.10;;;;;;;;;;5103618;28;20039;-78
2021/04/14 12:08:17;;;;;;;4.50;2.40;;;;;;;;;;5102998;28;20023;-78
2021/04/14 12:10:43;;;;;;;3.75;1.95;;;;;;;;;;5104691;28;20032;-77
2021/04/14 12:13:09;;;;;;;3.70;2.10;;;;;;;;;;5098705;28;20016;-77
2021/04/14 12:15:34;;;;;;;7.45;1.83;;;;;;;;;;5101247;28;20016;-77
2021/04/14 12:18:00;;;;;;;5.82;2.08;;;;;;;;;;5098299;28;20016;-77
2021/04/14 12:20:26;;;;;;;3.72;2.10;;;;;;;;;;5101914;28;20054;-78
2021/04/14 12:22:52;;;;;;;5.65;1.83;;;;;;;;;;5100696;28;20020;-77
2021/04/14 12:25:19;;;;;;;5.15;2.58;;;;;;;;;;5096764;28;20020;-78
2021/04/14 12:27:46;;;;;;;5.10;1.83;;;;;;;;;;5096337;28;20089;-78
2021/04/14 12:30:12;;;;;;;6.93;1.92;;;;;;;;;;5102153;28;20452;-78
2021/04/14 12:32:38;;;;;;;3.00;1.90;;;;;;;;;;5099360;28;20048;-77
2021/04/14 12:35:04;;;;;;;5.32;2.10;;;;;;;;;;5101370;28;20103;-78
2021/04/14 12:37:30;;;;;;;7.53;2.75;;;;;;;;;;5101033;28;20021;-77
2021/04/14 12:42:14;;;;;;;6.05;2.78;;;;;;;;;;5060065;28;20745;-76
2021/04/14 12:44:40;;;;;;;6.25;2.10;;;;;;;;;;5047331;28;20036;-76
2021/04/14 12:47:13;;;;;;;4.50;2.28;;;;;;;;;;5046470;28;20092;-76
2021/04/14 12:49:42;;;;;;;6.57;2.45;;;;;;;;;;5032270;28;20014;-76
2021/04/14 12:52:09;;;;;;;4.07;2.42;;;;;;;;;;5031349;28;20025;-76
2021/04/14 12:54:37;;;;;;;5.07;2.55;;;;;;;;;;5036713;28;20061;-76
2021/04/14 12:57:08;;;;;;;6.13;2.28;;;;;;;;;;5028239;28;20108;-76
2021/04/14 13:00:06;;;;;;;5.20;2.72;;;;;;;;;;5039744;28;20078;-77
2021/04/14 13:02:39;;;;;;;4.38;2.17;;;;;;;;;;4993997;28;20043;-77
2021/04/14 13:05:11;;;;;;;7.18;2.58;;;;;;;;;;5031011;28;20071;-76
2021/04/14 13:07:47;;;;;;;4.03;2.08;;;;;;;;;;5038597;28;21322;-77
2021/04/14 13:10:13;;;;;;;8.93;2.08;;;;;;;;;;5039577;28;20428;-76
2021/04/14 13:12:39;;;;;;;5.07;2.47;;;;;;;;;;5038826;28;20079;-76
2021/04/14 13:15:10;;;;;;;5.10;2.28;;;;;;;;;;5035466;28;20029;-76
2021/04/14 13:17:37;;;;;;;3.30;2.00;;;;;;;;;;5041153;28;20048;-76
2021/04/14 13:20:04;;;;;;;6.65;2.05;;;;;;;;;;5035542;28;20068;-77
2021/04/14 13:22:40;;;;;;;4.93;2.55;;;;;;;;;;5033772;28;20034;-77
2021/04/14 13:25:13;;;;;;;5.47;2.83;;;;;;;;;;5032074;28;20029;-77
2021/04/14 13:27:58;;;;;;;6.25;2.35;;;;;;;;;;5034656;28;20025;-77
2021/04/14 13:30:27;;;;;;;6.13;2.40;;;;;;;;;;5037168;28;20087;-77
2021/04/14 13:35:14;;;;;;;5.90;1.92;;;;;;;;;;5105412;27;20409;-77
2021/04/14 13:37:42;;;;;;;4.80;2.15;;;;;;;;;;5097328;28;20024;-77
2021/04/14 13:40:13;;;;;;;7.05;2.95;;;;;;;;;;5095675;28;20024;-77
2021/04/14 13:42:45;;;;;;;3.85;1.92;;;;;;;;;;5097956;28;20012;-77
2021/04/14 13:45:25;;;;;;;3.47;1.85;;;;;;;;;;5099680;28;20023;-77
2021/04/14 13:47:51;;;;;;;5.45;1.83;;;;;;;;;;5097334;28;20491;-77
2021/04/14 13:50:35;;;;;;;2.40;1.38;;;;;;;;;;5098006;28;20025;-77
2021/04/14 13:53:08;;;;;;;5.68;2.45;;;;;;;;;;5099871;28;20103;-77
2021/04/14 13:55:34;;;;;;;6.47;1.90;;;;;;;;;;5093262;28;20025;-77
2021/04/14 13:58:22;;;;;;;6.22;2.33;;;;;;;;;;5099538;28;20472;-77
2021/04/14 14:00:53;;;;;;;2.72;1.48;;;;;;;;;;5104661;28;20044;-77
2021/04/14 14:03:22;;;;;;;4.77;2.37;;;;;;;;;;5098979;28;20028;-78
2021/04/14 14:05:47;;;;;;;4.63;2.03;;;;;;;;;;5096728;28;20020;-77
2021/04/14 14:08:26;;;;;;;4.90;2.10;;;;;;;;;;5098706;28;20083;-76
2021/04/14 14:10:59;;;;;;;5.10;2.30;;;;;;;;;;5103934;28;20276;-77
2021/04/14 14:13:41;;;;;;;6.00;2.50;;;;;;;;;;5094946;28;20044;-76
2021/04/14 14:16:10;;;;;;;4.13;2.20;;;;;;;;;;5092540;28;20054;-76
2021/04/14 14:18:37;;;;;;;5.15;1.90;;;;;;;;;;5092229;28;20442;-76
2021/04/14 14:21:04;;;;;;;3.80;2.10;;;;;;;;;;5093832;28;20026;-77
2021/04/14 14:23:30;;;;;;;4.20;2.53;;;;;;;;;;5098068;28;20071;-78
2021/04/14 14:25:58;;;;;;;4.65;2.63;;;;;;;;;;5096628;28;20028;-77
2021/04/14 14:28:24;;;;;;;4.50;1.90;;;;;;;;;;5099364;28;20360;-77
2021/04/14 14:30:51;;;;;;;4.15;2.08;;;;;;;;;;5099973;28;20090;-77
2021/04/14 14:33:17;;;;;;;4.57;1.88;;;;;;;;;;5097476;28;20110;-77
2021/04/14 14:35:43;;;;;;;4.07;1.90;;;;;;;;;;5096537;28;20488;-78
2021/04/14 14:38:13;;;;;;;4.72;2.22;;;;;;;;;;5092361;28;20028;-77
2021/04/14 14:40:46;;;;;;;2.50;1.40;;;;;;;;;;5096192;28;20103;-78
2021/04/14 14:43:19;;;;;;;9.50;3.17;;;;;;;;;;5099644;28;20016;-77
2021/04/14 14:45:48;;;;;;;4.50;1.95;;;;;;;;;;5084658;28;20472;-78
2021/04/14 14:48:23;;;;;;;4.78;1.90;;;;;;;;;;5090739;28;20043;-77
2021/04/14 14:50:51;;;;;;;3.70;1.77;;;;;;;;;;5087754;28;20044;-76
2021/04/14 14:53:18;;;;;;;4.18;1.27;;;;;;;;;;5080216;28;20024;-77
2021/04/14 14:55:44;;;;;;;3.00;1.60;;;;;;;;;;5077231;28;20038;-78
2021/04/14 14:58:12;;;;;;;4.30;1.80;;;;;;;;;;5078919;28;20082;-77
2021/04/14 15:00:39;;;;;;;3.50;1.80;;;;;;;;;;5082261;28;20020;-77
2021/04/14 15:03:05;;;;;;;3.08;1.40;;;;;;;;;;5083016;28;20883;-77
2021/04/14 15:05:31;;;;;;;4.85;1.35;;;;;;;;;;5088730;28;20050;-78
2021/04/14 15:07:57;;;;;;;3.08;1.33;;;;;;;;;;5087821;28;20027;-77
2021/04/14 15:10:25;;;;;;;2.78;1.55;;;;;;;;;;5081076;28;20020;-77
2021/04/14 15:12:50;;;;;;;4.32;1.45;;;;;;;;;;5090344;28;20020;-77
2021/04/14 15:15:17;;;;;;;3.72;1.73;;;;;;;;;;5080929;28;20137;-77
2021/04/14 15:17:43;;;;;;;5.07;1.60;;;;;;;;;;5078972;28;20056;-77
2021/04/14 15:20:09;;;;;;;2.72;1.23;;;;;;;;;;5079557;28;20384;-77
2021/04/14 15:22:35;;;;;;;3.35;2.00;;;;;;;;;;5077183;28;20603;-77
2021/04/14 15:27:20;;;;;;;3.85;2.13;;;;;;;;;;5087777;28;20804;-77
2021/04/14 15:29:46;;;;;;;4.00;2.15;;;;;;;;;;5074327;28;20123;-76
2021/04/14 15:32:12;;;;;;;4.50;2.05;;;;;;;;;;5070381;28;20039;-77
2021/04/14 15:34:37;;;;;;;3.92;1.90;;;;;;;;;;5072235;28;20023;-77
2021/04/14 15:37:04;;;;;;;3.33;1.48;;;;;;;;;;5070527;28;20115;-77
2021/04/14 15:39:30;;;;;;;2.95;1.38;;;;;;;;;;5078902;28;20060;-77
2021/04/14 15:41:56;;;;;;;4.15;1.38;;;;;;;;;;5064848;28;20102;-77
2021/04/14 15:44:21;;;;;;;6.18;1.48;;;;;;;;;;5061970;28;20056;-77
2021/04/14 15:46:49;;;;;;;4.97;1.90;;;;;;;;;;5063352;28;20025;-76
2021/04/14 15:49:19;;;;;;;4.05;1.30;;;;;;;;;;5065453;28;20060;-77
2021/04/14 15:51:45;;;;;;;3.13;1.42;;;;;;;;;;5070411;28;20407;-77
2021/04/14 15:54:11;;;;;;;4.38;1.67;;;;;;;;;;5062867;28;20021;-78
2021/04/14 15:56:38;;;;;;;4.43;2.38;;;;;;;;;;5068147;28;20016;-77
2021/04/14 15:59:05;;;;;;;4.28;1.90;;;;;;;;;;5067565;28;20485;-77
2021/04/14 16:01:32;;;;;;;6.47;2.17;;;;;;;;;;5067127;28;20051;-76
2021/04/14 16:03:58;;;;;;;3.20;1.50;;;;;;;;;;5067096;28;20558;-77
2021/04/14 16:06:29;;;;;;;6.82;2.00;;;;;;;;;;5068525;28;20021;-76
2021/04/14 16:08:55;;;;;;;3.38;1.73;;;;;;;;;;5070079;28;20016;-77
2021/04/14 16:11:21;;;;;;;3.08;1.30;;;;;;;;;;5069415;28;20078;-76
2021/04/14 16:13:48;;;;;;;3.90;1.60;;;;;;;;;;5067338;28;20401;-77
2021/04/14 16:16:14;;;;;;;3.75;1.80;;;;;;;;;;5062686;28;20051;-77
2021/04/14 16:18:39;;;;;;;6.57;3.53;;;;;;;;;;5064841;28;20037;-77
2021/04/14 16:21:06;;;;;;;2.45;1.40;;;;;;;;;;5062631;28;20123;-77
2021/04/14 16:23:32;;;;;;;4.32;1.50;;;;;;;;;;5050791;28;20055;-77
2021/04/14 16:25:58;;;;;;;4.93;1.60;;;;;;;;;;5069162;28;20028;-77
2021/04/14 16:28:24;;;;;;;2.75;1.30;;;;;;;;;;5076369;28;20472;-77
2021/04/14 16:30:50;;;;;;;8.05;1.83;;;;;;;;;;5068733;28;20766;-77
2021/04/14 16:33:15;;;;;;;3.75;1.05;;;;;;;;;;5063526;28;20056;-77
2021/04/14 16:35:41;;;;;;;3.95;1.30;;;;;;;;;;5065309;28;20025;-77
2021/04/14 16:38:07;;;;;;;2.42;1.30;;;;;;;;;;5060418;28;20102;-77
2021/04/14 16:40:33;;;;;;;6.50;1.42;;;;;;;;;;5049397;28;20031;-78
2021/04/14 16:42:59;;;;;;;2.70;1.33;;;;;;;;;;5052757;28;20016;-78
2021/04/14 16:45:26;;;;;;;3.70;1.52;;;;;;;;;;5051196;28;20029;-77
2021/04/14 16:47:52;;;;;;;2.70;1.20;;;;;;;;;;5051117;28;20432;-76
2021/04/14 16:50:18;;;;;;;5.93;1.23;;;;;;;;;;5050666;28;20025;-77
2021/04/14 16:52:44;;;;;;;3.20;1.33;;;;;;;;;;5052009;28;20028;-77
2021/04/14 16:55:10;;;;;;;2.85;1.67;;;;;;;;;;5049990;28;20029;-77
2021/04/14 16:57:36;;;;;;;3.67;1.40;;;;;;;;;;5047425;28;20021;-77
2021/04/14 17:00:03;;;;;;;2.50;1.25;;;;;;;;;;5047671;28;20028;-77
2021/04/14 17:04:47;;;;;;;3.10;1.10;;;;;;;;;;5048316;28;20359;-77
2021/04/14 17:07:12;;;;;;;2.30;1.08;;;;;;;;;;5040047;28;20072;-77
2021/04/14 17:09:38;;;;;;;4.10;1.60;;;;;;;;;;5022963;28;20113;-78
2021/04/14 17:12:04;;;;;;;5.60;2.35;;;;;;;;;;5006721;28;20475;-77
2021/04/14 17:14:30;;;;;;;6.43;2.30;;;;;;;;;;5003462;28;20037;-77
2021/04/14 17:16:56;;;;;;;11.40;4.03;;;;;;;;;;5007656;28;20026;-76
2021/04/14 17:19:22;;;;;;;24.52;12.13;;;;;;;;;;5003118;28;20479;-76
2021/04/14 17:21:48;;;;;;;25.15;12.68;;;;;;;;;;5007678;28;20026;-76
2021/04/14 17:24:14;;;;;;;15.35;8.93;;;;;;;;;;5007878;28;20033;-78
2021/04/14 17:26:42;;;;;;;6.72;4.00;;;;;;;;;;5016064;28;20026;-78
2021/04/14 17:29:08;;;;;;;5.97;1.88;;;;;;;;;;5017563;28;20077;-77
2021/04/14 17:31:34;;;;;;;6.20;3.08;;;;;;;;;;5009552;28;20022;-76
2021/04/14 17:34:01;;;;;;;6.20;3.03;;;;;;;;;;5007454;28;20381;-77
2021/04/14 17:36:28;;;;;;;4.28;1.88;;;;;;;;;;5004764;28;20490;-77
2021/04/14 17:38:54;;;;;;;6.72;2.78;;;;;;;;;;5006985;28;20059;-78
2021/04/14 17:41:20;;;;;;;5.57;2.80;;;;;;;;;;5007053;28;20056;-78
2021/04/14 17:43:45;;;;;;;5.03;2.40;;;;;;;;;;5007857;28;20045;-78
2021/04/14 17:46:11;;;;;;;6.70;2.13;;;;;;;;;;5004955;28;20034;-78
2021/04/14 17:48:37;;;;;;;3.85;1.80;;;;;;;;;;5008296;28;20034;-77
2021/04/14 17:51:03;;;;;;;4.55;2.15;;;;;;;;;;5005386;28;20024;-77
2021/04/14 17:53:29;;;;;;;12.40;4.68;;;;;;;;;;5008455;28;20863;-77
2021/04/14 17:58:13;;;;;;;4.30;2.10;;;;;;;;;;5071186;28;20741;-77
2021/04/14 18:00:40;;;;;;;5.22;1.83;;;;;;;;;;5068395;28;20025;-77
2021/04/14 18:05:24;;;;;;;3.72;1.52;;;;;;;;;;5101802;27;20414;-78
2021/04/14 18:07:50;;;;;;;2.40;1.10;;;;;;;;;;5095865;28;20024;-78
2021/04/14 18:10:17;;;;;;;2.97;1.25;;;;;;;;;;5098913;28;20023;-78
2021/04/14 18:12:42;;;;;;;4.03;1.10;;;;;;;;;;5096603;28;20047;-78
2021/04/14 18:15:08;;;;;;;3.88;0.93;;;;;;;;;;5097965;28;20032;-78
2021/04/14 18:17:34;;;;;;;3.28;1.02;;;;;;;;;;5095527;28;20040;-77
2021/04/14 18:20:01;;;;;;;2.60;1.00;;;;;;;;;;5093060;28;20055;-77
2021/04/14 18:22:27;;;;;;;2.00;0.85;;;;;;;;;;5096230;28;20094;-78
2021/04/14 18:24:53;;;;;;;3.35;1.00;;;;;;;;;;5100313;28;20436;-79
2021/04/14 18:27:19;;;;;;;4.72;1.13;;;;;;;;;;5094665;28;20078;-77
2021/04/14 18:29:44;;;;;;;3.72;1.52;;;;;;;;;;5092390;28;20020;-79
2021/04/14 18:32:10;;;;;;;3.58;2.33;;;;;;;;;;5098523;28;20028;-77
2021/04/14 18:34:36;;;;;;;2.35;1.27;;;;;;;;;;5101659;28;20046;-78
2021/04/14 18:37:02;;;;;;;3.42;1.15;;;;;;;;;;5098760;28;20037;-78
2021/04/14 18:39:27;;;;;;;3.70;1.17;;;;;;;;;;5100233;28;20040;-77
2021/04/14 18:41:54;;;;;;;3.20;1.27;;;;;;;;;;5105354;28;20062;-78
2021/04/14 18:44:21;;;;;;;2.47;1.20;;;;;;;;;;5093056;28;20515;-79
2021/04/14 18:46:47;;;;;;;2.42;1.00;;;;;;;;;;5096800;28;20491;-78
2021/04/14 18:49:13;;;;;;;2.92;1.45;;;;;;;;;;5095784;28;20087;-76
2021/04/14 18:51:39;;;;;;;2.72;1.10;;;;;;;;;;5104102;28;20027;-76
2021/04/14 18:56:22;;;;;;;2.25;0.95;;;;;;;;;;5094022;28;20382;-78
2021/04/14 18:58:48;;;;;;;3.33;1.00;;;;;;;;;;5075064;28;20555;-77
2021/04/14 19:01:14;;;;;;;2.65;1.00;;;;;;;;;;5076451;28;20059;-79
2021/04/14 19:03:40;;;;;;;2.47;1.10;;;;;;;;;;5075411;28;20089;-77
2021/04/14 19:06:06;;;;;;;2.00;0.90;;;;;;;;;;5077372;28;20092;-78
2021/04/14 19:08:31;;;;;;;1.85;0.90;;;;;;;;;;5087007;28;20059;-77
2021/04/14 19:10:58;;;;;;;2.25;0.95;;;;;;;;;;5079927;28;20028;-78
2021/04/14 19:13:25;;;;;;;4.40;1.10;;;;;;;;;;5080426;28;20028;-77
2021/04/14 19:15:51;;;;;;;2.13;0.90;;;;;;;;;;5079078;28;20020;-77
2021/04/14 19:18:17;;;;;;;2.13;0.88;;;;;;;;;;5074522;28;20048;-78
2021/04/14 19:20:44;;;;;;;3.20;1.08;;;;;;;;;;5074943;28;20066;-79
2021/04/14 19:23:10;;;;;;;2.13;0.88;;;;;;;;;;5081227;28;20047;-77
2021/04/14 19:25:40;;;;;;;2.63;1.02;;;;;;;;;;5082185;28;20479;-77
2021/04/14 19:28:06;;;;;;;4.10;0.88;;;;;;;;;;5077196;28;20067;-77
2021/04/14 19:30:33;;;;;;;5.60;1.48;;;;;;;;;;5078741;28;20440;-78
2021/04/14 19:32:59;;;;;;;2.05;0.88;;;;;;;;;;5075455;28;20064;-76
2021/04/14 19:35:25;;;;;;;3.03;1.02;;;;;;;;;;5061139;28;20586;-77
2021/04/14 19:37:52;;;;;;;1.90;0.88;;;;;;;;;;5085991;28;20059;-78
2021/04/14 19:40:19;;;;;;;2.28;0.90;;;;;;;;;;5083303;28;20059;-77
2021/04/14 19:42:45;;;;;;;2.08;0.80;;;;;;;;;;5078790;28;20036;-79
2021/04/14 19:45:11;;;;;;;3.70;1.20;;;;;;;;;;5082161;28;20236;-79
2021/04/14 19:47:37;;;;;;;3.63;0.90;;;;;;;;;;5073465;28;20060;-79
2021/04/14 19:50:04;;;;;;;1.52;0.70;;;;;;;;;;5083721;28;20031;-78
2021/04/14 19:52:30;;;;;;;1.65;0.82;;;;;;;;;;5080468;28;20029;-78
2021/04/14 19:54:55;;;;;;;4.28;1.30;;;;;;;;;;5079033;28;20460;-78
2021/04/14 19:57:21;;;;;;;2.55;0.90;;;;;;;;;;5074915;28;20051;-78
2021/04/14 19:59:46;;;;;;;4.72;1.02;;;;;;;;;;5055021;28;20109;-77
2021/04/14 20:02:12;;;;;;;2.95;1.15;;;;;;;;;;5085848;28;20032;-78
2021/04/14 20:04:38;;;;;;;2.00;0.82;;;;;;;;;;5083997;28;20047;-76
2021/04/14 20:07:04;;;;;;;2.58;1.10;;;;;;;;;;5069619;28;20052;-78